Abiquiu, New Mexico
Current Conditions -  °F | °C
As of 2:35 PM on Friday 19 Dec 2014 (Local Time) from KLAM Reporting Station
Scattered Clouds Scattered Clouds  
Wind Chill: 29°   Ceiling: Unl
Heat Index: 33°   Visibility: 10mi
Dew Point: 22°   Wind: 5mph
Humidity: 64%   Direction: 70°ENE
Pressure: 30.15"   Gusts: NA
Location:  36.21°N, 106.32°W
Report Text: KLAM 192135Z AUTO 07004KT 10SM SCT034 01/M05 A3015 RMK AO2 T00071055
Loading
Personal Weather Stations






























Interactive Weather Map New forecast layout! Learn more

10-Day Weather Forecast

Advertisements
Track Severe Weather on mobile